»·PEaware :: QXE2492 KSAN-KSTS

QXE2492 :: KSAN-KSTS

FLIGHT INFORMATION

Flight Status: Arrived
Operator:
Horizon Air
More flights by this operator :: More flights under this callsign
Pilot: Kyle A. (14988)
Aircraft: DEHAVILLAND DASH 8 400
(DH8D)
More flights by this aircraft type
Origin: KSAN San Diego Intl-Lindbergh
United States
Destination: KSTS Sonoma Co
United States
More flights between these airports :: More routes between these airports
Route: PADRZ2 OROSZ COREZ RGOOD OAK SAU
File this flight plan on PilotEdge
Remarks:
Altitude:
(Current/Filed)
24,000ft
Speed:
(Current/Filed)
324kts
Departed: 03-Mar-18 08:05 PM
Arrived: 03-Mar-18 10:03 PM
Distance/Time
Traveled:
442nm/1:58
Distance/Time
To Go:
Arrived

Flight Plot

Page will automatically refresh every two minutes.

Flight plan parsing failed; only flown route is shown


Map Options




Map Legend


Flown Route
Filed Route
Departure Airport
Arrival Airport
Navaid (VOR, NDB)
Fix

Horizontal Profiles

Position Reports

Time Latitude Longitude Heading Altitude Ground
Speed
03-Mar-18 19:36 32.733704 -117.199009 149 22ft 0kts
03-Mar-18 19:37 32.733704 -117.199009 149 22ft 0kts
03-Mar-18 19:38 32.733704 -117.199009 149 22ft 0kts
03-Mar-18 19:39 32.733704 -117.199009 149 22ft 0kts
03-Mar-18 19:40 32.733704 -117.199009 149 22ft 0kts
03-Mar-18 19:41 32.733704 -117.199009 149 22ft 0kts
03-Mar-18 19:42 32.733704 -117.199009 149 22ft 0kts
03-Mar-18 19:43 32.733704 -117.199009 149 22ft 0kts
03-Mar-18 19:44 32.733704 -117.199009 149 22ft 0kts
03-Mar-18 19:45 32.733704 -117.199009 149 22ft 0kts
03-Mar-18 19:46 32.733704 -117.199009 149 22ft 0kts
03-Mar-18 19:47 32.733822 -117.199092 149 22ft 2kts
03-Mar-18 19:48 32.734306 -117.199595 53 22ft 2kts
03-Mar-18 19:49 32.734169 -117.199652 15 22ft 0kts
03-Mar-18 19:50 32.734169 -117.199652 15 22ft 0kts
03-Mar-18 19:51 32.734169 -117.199652 15 22ft 0kts
03-Mar-18 19:52 32.734169 -117.199652 15 22ft 0kts
03-Mar-18 19:53 32.734169 -117.199652 15 22ft 0kts
03-Mar-18 19:54 32.734169 -117.199652 15 22ft 0kts
03-Mar-18 19:55 32.734169 -117.199652 15 22ft 0kts
03-Mar-18 19:56 32.734169 -117.199652 15 22ft 0kts
03-Mar-18 19:57 32.734169 -117.199652 15 22ft 0kts
03-Mar-18 19:58 32.734169 -117.199652 15 22ft 0kts
03-Mar-18 19:59 32.734169 -117.199652 15 22ft 0kts
03-Mar-18 20:00 32.734169 -117.199652 15 22ft 0kts
03-Mar-18 20:01 32.734780 -117.199280 68 22ft 3kts
03-Mar-18 20:02 32.734322 -117.197004 106 22ft 10kts
03-Mar-18 20:03 32.733300 -117.192838 105 22ft 15kts
03-Mar-18 20:04 32.731963 -117.187313 105 22ft 19kts
03-Mar-18 20:05 32.730503 -117.181293 106 22ft 16kts
03-Mar-18 20:06 32.729493 -117.177139 103 22ft 9kts
03-Mar-18 20:07 32.729506 -117.176786 75 22ft 0kts
03-Mar-18 20:08 32.729506 -117.176786 75 22ft 0kts
03-Mar-18 20:09 32.729506 -117.176786 75 22ft 0kts
03-Mar-18 20:10 32.729506 -117.176786 75 22ft 0kts
03-Mar-18 20:11 32.730340 -117.176414 287 22ft 14kts
03-Mar-18 20:12 32.740975 -117.213398 292 1170ft 153kts
03-Mar-18 20:13 32.765081 -117.258802 301 3594ft 173kts
03-Mar-18 20:14 32.793513 -117.307394 298 6380ft 180kts
03-Mar-18 20:15 32.824454 -117.357014 301 9132ft 189kts
03-Mar-18 20:16 32.857140 -117.406431 298 11830ft 187kts
03-Mar-18 20:17 32.889098 -117.456243 296 14020ft 190kts
03-Mar-18 20:18 32.924675 -117.512888 298 15031ft 230kts
03-Mar-18 20:19 32.964387 -117.574284 298 16337ft 237kts
03-Mar-18 20:20 33.004781 -117.637222 297 17549ft 240kts
03-Mar-18 20:21 33.045435 -117.700820 297 18620ft 243kts
03-Mar-18 20:22 33.093693 -117.760147 308 19499ft 256kts
03-Mar-18 20:23 33.148176 -117.815241 307 20144ft 258kts
03-Mar-18 20:24 33.202965 -117.870999 308 20699ft 260kts
03-Mar-18 20:25 33.252700 -117.919299 309 21353ft 255kts
03-Mar-18 20:26 33.309085 -117.974326 309 21906ft 263kts
03-Mar-18 20:27 33.363430 -118.027135 307 23044ft 249kts
03-Mar-18 20:28 33.416574 -118.079542 307 23862ft 249kts
03-Mar-18 20:29 33.470147 -118.132501 309 24133ft 270kts
03-Mar-18 20:30 33.531745 -118.192815 309 24144ft 282kts
03-Mar-18 20:31 33.596829 -118.248627 323 24145ft 304kts
03-Mar-18 20:32 33.674479 -118.290268 323 24145ft 308kts
03-Mar-18 20:33 33.746124 -118.330031 323 24146ft 306kts
03-Mar-18 20:34 33.828284 -118.372388 326 24146ft 314kts
03-Mar-18 20:35 33.907272 -118.411759 325 24146ft 314kts
03-Mar-18 20:36 33.985768 -118.451561 325 24146ft 314kts
03-Mar-18 20:37 34.065574 -118.491726 325 24144ft 311kts
03-Mar-18 20:38 34.145199 -118.532426 324 24136ft 309kts
03-Mar-18 20:39 34.223925 -118.572576 324 24130ft 307kts
03-Mar-18 20:40 34.293828 -118.608270 324 24127ft 306kts
03-Mar-18 20:41 34.369829 -118.646126 324 24120ft 301kts
03-Mar-18 20:42 34.445723 -118.686212 317 24112ft 293kts
03-Mar-18 20:43 34.515674 -118.736754 316 24103ft 294kts
03-Mar-18 20:44 34.586218 -118.786561 316 24093ft 294kts
03-Mar-18 20:45 34.656566 -118.836441 316 24084ft 294kts
03-Mar-18 20:46 34.727083 -118.886555 316 24081ft 294kts
03-Mar-18 20:47 34.797269 -118.936543 316 24080ft 294kts
03-Mar-18 20:48 34.867162 -118.986412 315 24083ft 293kts
03-Mar-18 20:49 34.937605 -119.036777 315 24088ft 293kts
03-Mar-18 20:50 35.007657 -119.086978 315 24107ft 292kts
03-Mar-18 20:51 35.077608 -119.137206 315 24119ft 291kts
03-Mar-18 20:52 35.142966 -119.184182 315 24126ft 287kts
03-Mar-18 20:53 35.207569 -119.230684 314 24137ft 284kts
03-Mar-18 20:54 35.275481 -119.279733 314 24138ft 282kts
03-Mar-18 20:55 35.342559 -119.328277 314 24136ft 279kts
03-Mar-18 20:56 35.409085 -119.376414 313 24136ft 277kts
03-Mar-18 20:57 35.475113 -119.424476 313 24150ft 274kts
03-Mar-18 20:58 35.540365 -119.471910 313 24162ft 273kts
03-Mar-18 20:59 35.598690 -119.526578 305 24159ft 262kts
03-Mar-18 21:00 35.654821 -119.583963 305 24161ft 264kts
03-Mar-18 21:01 35.711287 -119.641696 305 24163ft 265kts
03-Mar-18 21:02 35.767744 -119.699466 305 24165ft 265kts
03-Mar-18 21:03 35.824320 -119.757577 305 24167ft 267kts
03-Mar-18 21:04 35.881308 -119.816311 305 24165ft 267kts
03-Mar-18 21:05 35.935444 -119.877070 300 24164ft 260kts
03-Mar-18 21:06 35.985624 -119.940961 300 24162ft 260kts
03-Mar-18 21:07 36.035998 -120.004832 300 24157ft 260kts
03-Mar-18 21:08 36.086336 -120.068758 300 24156ft 260kts
03-Mar-18 21:09 36.136572 -120.132769 300 24156ft 260kts
03-Mar-18 21:10 36.186583 -120.196548 300 24155ft 260kts
03-Mar-18 21:11 36.236691 -120.260737 300 24155ft 261kts
03-Mar-18 21:12 36.287001 -120.325079 301 24155ft 261kts
03-Mar-18 21:13 36.337419 -120.389804 301 24157ft 262kts
03-Mar-18 21:14 36.388040 -120.454880 301 24154ft 264kts
03-Mar-18 21:15 36.438944 -120.520541 302 24159ft 266kts
03-Mar-18 21:16 36.489887 -120.586244 303 24184ft 267kts
03-Mar-18 21:17 36.541382 -120.652822 303 24187ft 269kts
03-Mar-18 21:18 36.593186 -120.719931 304 24189ft 271kts
03-Mar-18 21:19 36.645339 -120.787638 304 24188ft 272kts
03-Mar-18 21:20 36.697853 -120.855943 305 24188ft 273kts
03-Mar-18 21:21 36.750410 -120.924469 305 24189ft 275kts
03-Mar-18 21:22 36.803129 -120.993380 305 24189ft 276kts
03-Mar-18 21:23 36.856225 -121.062923 305 24190ft 278kts
03-Mar-18 21:24 36.909239 -121.132427 306 24190ft 279kts
03-Mar-18 21:25 36.962971 -121.203041 306 24189ft 281kts
03-Mar-18 21:26 37.016606 -121.273854 306 24189ft 282kts
03-Mar-18 21:27 37.070464 -121.344942 306 24188ft 283kts
03-Mar-18 21:28 37.124728 -121.416792 307 24186ft 284kts
03-Mar-18 21:29 37.178900 -121.488687 307 24184ft 286kts
03-Mar-18 21:30 37.233000 -121.560774 307 24180ft 288kts
03-Mar-18 21:31 37.288244 -121.634504 307 24174ft 291kts
03-Mar-18 21:32 37.337458 -121.700139 307 24170ft 290kts
03-Mar-18 21:33 37.393127 -121.774749 308 24169ft 294kts
03-Mar-18 21:34 37.449316 -121.850103 308 24172ft 298kts
03-Mar-18 21:35 37.498067 -121.915624 309 24174ft 294kts
03-Mar-18 21:36 37.555253 -121.992756 310 22754ft 309kts
03-Mar-18 21:37 37.614053 -122.072414 311 20360ft 309kts
03-Mar-18 21:38 37.670499 -122.148468 311 17990ft 295kts
03-Mar-18 21:39 37.723854 -122.221619 307 15622ft 281kts
03-Mar-18 21:40 37.760719 -122.303696 297 13250ft 266kts
03-Mar-18 21:41 37.795823 -122.385176 298 10536ft 262kts
03-Mar-18 21:42 37.830230 -122.464654 298 7859ft 255kts
03-Mar-18 21:43 37.876171 -122.523297 337 5651ft 237kts
03-Mar-18 21:44 37.936219 -122.545366 342 4064ft 203kts
03-Mar-18 21:45 37.990143 -122.560546 343 4039ft 188kts
03-Mar-18 21:46 38.039645 -122.574529 342 4026ft 182kts
03-Mar-18 21:47 38.090019 -122.588776 342 4028ft 188kts
03-Mar-18 21:48 38.139630 -122.611048 333 3276ft 188kts
03-Mar-18 21:49 38.186278 -122.635785 332 2837ft 177kts
03-Mar-18 21:50 38.231174 -122.660055 332 2816ft 170kts
03-Mar-18 21:51 38.274766 -122.683476 333 2831ft 176kts
03-Mar-18 21:52 38.319679 -122.707631 333 2814ft 170kts
03-Mar-18 21:53 38.363329 -122.731066 332 2704ft 179kts
03-Mar-18 21:54 38.407613 -122.755257 335 2072ft 158kts
03-Mar-18 21:55 38.444782 -122.775120 336 1345ft 131kts
03-Mar-18 21:56 38.477137 -122.792330 336 672ft 126kts
03-Mar-18 21:57 38.503336 -122.805172 328 701ft 126kts
03-Mar-18 21:58 38.547940 -122.847801 329 3131ft 192kts
03-Mar-18 21:59 38.601409 -122.887171 310 3471ft 223kts
03-Mar-18 22:00 38.585533 -122.949099 195 3512ft 225kts
03-Mar-18 22:01 38.526839 -122.920420 156 3516ft 231kts
03-Mar-18 22:02 38.478550 -122.891430 158 3517ft 230kts
03-Mar-18 22:03 38.411474 -122.851571 158 2804ft 219kts
03-Mar-18 22:04 38.368500 -122.826073 158 2088ft 190kts
03-Mar-18 22:05 38.356075 -122.780565 46 2053ft 158kts
03-Mar-18 22:06 38.389718 -122.756257 353 1943ft 117kts
03-Mar-18 22:07 38.423969 -122.765830 342 1798ft 136kts
03-Mar-18 22:08 38.456725 -122.781440 338 1104ft 121kts
03-Mar-18 22:09 38.487810 -122.797870 338 462ft 123kts
03-Mar-18 22:10 38.511791 -122.810775 335 132ft 7kts
03-Mar-18 22:11 38.514182 -122.810668 99 132ft 13kts
03-Mar-18 22:12 38.511265 -122.808890 157 132ft 8kts
03-Mar-18 22:13 38.510721 -122.807824 153 132ft 4kts
03-Mar-18 22:14 38.509853 -122.806269 66 132ft 2kts
03-Mar-18 22:15 38.509854 -122.806264 66 132ft 0kts
03-Mar-18 22:16 38.509854 -122.806264 66 132ft 0kts
03-Mar-18 22:17 38.509854 -122.806264 66 132ft 0kts
03-Mar-18 22:18 38.509854 -122.806264 66 132ft 0kts

Navigation Log

Ident Type
Flight plan parsing failed, navigation log unavailable